Aérodrome :
LOGIN :

S'inscrire | Disclaimer

   EN    FR    IT 

 










Légende :    VFR   VFR Marginal   IFR   IFR Intensif   IFR Très Intensif
Visi : 
Plafond : 
>= 8 km
>= 3000ft
5 à 8 km
1000 à 3000 ft
1500m à 5 km
500 à 1000 ft
800 à 1500m
200 à 500 ft
< 800m
< 200 ft
Symboles :   Orages  Brouillard  Fortes neiges  Fortes précipitations  Vent > 20 kt
SIGMETs :   Divers  Orages  Givrage  Turbulence  Onde Orograph.  Cendres Volcan.






- Altitude de l'aérodrome : 308 ft
- Code IATA : MHG


EDFM - Mannheim-City

DERNIER METAR :
  • 160720Z 02008KT CAVOK 05/M01 Q1025

METARs EXPIRÉS :
  • 160650Z 34008KT CAVOK 05/M01 Q1025
  • 160620Z 01006KT CAVOK 05/M00 Q1025
  • 160550Z 36005KT CAVOK 04/M00 Q1025
  • 160520Z VRB03KT CAVOK 03/M01 Q1025

TAF TAF EDFM
Valide du 16 à 06h jusqu'au 16 à 15h UTC


160500Z 1606/1615 VRB03KT 9999 SCT045
BECMG 1606/1608 01007KT



MET'MAP, la Météo Aéronautique d'un coup d'oeil ! - Copyright ORBIFLY Décembre 2007 - Disclaimer

ORBIFLY MET'MAP TEAM :

Programmation & Développement : Alexandra Zaïnal
Sur une idée originale de : Baudouin d'Aumeries
Assistance à la programmation : Marc-Olivier Méhu
Soutien technique & logistique : Manuel Goepfert

Contact : metmap@orbifly.com




SOURCES & CREDITS :

   NOAA